createdAt,value
2022-10-04T00:01:49.158Z,12.73
2022-10-04T00:04:20.697Z,12.77
2022-10-04T00:06:52.856Z,12.77
2022-10-04T00:09:23.453Z,12.67
2022-10-04T00:11:51.793Z,12.69
2022-10-04T00:14:24.188Z,12.57
2022-10-04T00:16:52.775Z,12.51
2022-10-04T00:19:39.065Z,12.49
2022-10-04T00:22:20.445Z,12.60
2022-10-04T00:25:20.683Z,12.64
2022-10-04T00:28:25.468Z,12.52
2022-10-04T00:31:21.976Z,12.28
2022-10-04T00:33:51.855Z,12.26
2022-10-04T00:36:47.895Z,12.36
2022-10-04T00:39:41.634Z,12.42
2022-10-04T00:42:33.611Z,12.47
2022-10-04T00:45:04.212Z,12.50
2022-10-04T00:47:35.224Z,12.34
2022-10-04T00:50:16.599Z,12.41
2022-10-04T00:52:46.512Z,12.30
2022-10-04T00:55:22.977Z,12.26
2022-10-04T00:57:51.685Z,12.40
2022-10-04T01:00:21.336Z,12.50
2022-10-04T01:02:54.106Z,12.55
2022-10-04T01:05:24.433Z,12.57
2022-10-04T01:07:55.663Z,12.59
2022-10-04T01:10:26.752Z,12.47
2022-10-04T01:12:58.684Z,12.53
2022-10-04T01:15:32.773Z,12.55
2022-10-04T01:18:16.556Z,12.48
2022-10-04T01:20:54.322Z,12.41
2022-10-04T01:23:41.596Z,12.28
2022-10-04T01:26:38.252Z,12.49
2022-10-04T01:29:13.097Z,12.59
2022-10-04T01:31:43.236Z,12.61
2022-10-04T01:34:14.155Z,12.67
2022-10-04T01:36:41.967Z,12.62
2022-10-04T01:39:11.169Z,12.62
2022-10-04T01:41:46.080Z,12.63
2022-10-04T01:44:20.040Z,12.69
2022-10-04T01:46:48.053Z,12.75
2022-10-04T01:49:19.749Z,12.81
2022-10-04T01:51:54.460Z,12.85
2022-10-04T01:54:30.888Z,12.66
2022-10-04T01:57:01.336Z,12.59
2022-10-04T01:59:31.536Z,12.21
2022-10-04T02:02:04.103Z,12.40
2022-10-04T02:04:34.608Z,12.47
2022-10-04T02:07:03.235Z,12.42
2022-10-04T02:09:34.546Z,12.35
2022-10-04T02:12:02.994Z,12.55
2022-10-04T02:14:34.029Z,12.49
2022-10-04T02:17:02.940Z,12.29
2022-10-04T02:19:34.520Z,12.57
2022-10-04T02:22:03.364Z,12.56
2022-10-04T02:24:34.772Z,12.53
2022-10-04T02:27:02.463Z,12.69
2022-10-04T02:29:30.071Z,12.74
2022-10-04T02:32:15.272Z,12.69
2022-10-04T02:34:42.868Z,12.43
2022-10-04T02:37:10.944Z,12.52
2022-10-04T02:39:43.958Z,12.51
2022-10-04T02:42:14.915Z,12.50
2022-10-04T02:44:43.467Z,12.42
2022-10-04T02:47:15.040Z,12.42
2022-10-04T02:49:45.928Z,12.35
2022-10-04T02:52:16.795Z,12.32
2022-10-04T02:54:47.914Z,12.31
2022-10-04T02:57:17.101Z,12.14
2022-10-04T02:59:44.668Z,12.13
2022-10-04T03:02:29.701Z,12.03
2022-10-04T03:05:00.898Z,11.97
2022-10-04T03:07:28.701Z,11.79
2022-10-04T03:09:57.596Z,11.59
2022-10-04T03:12:26.117Z,11.56
2022-10-04T03:14:53.938Z,11.50
2022-10-04T03:17:21.896Z,11.40
2022-10-04T03:19:49.913Z,11.33
2022-10-04T03:22:18.298Z,11.25
2022-10-04T03:24:47.690Z,11.28
2022-10-04T03:27:18.716Z,11.27
2022-10-04T03:29:46.628Z,11.15
2022-10-04T03:32:15.311Z,11.03
2022-10-04T03:34:45.388Z,11.07
2022-10-04T03:37:15.423Z,10.98
2022-10-04T03:39:44.851Z,10.95
2022-10-04T03:42:15.163Z,10.92
2022-10-04T03:44:45.231Z,10.93
2022-10-04T03:47:14.913Z,10.91
2022-10-04T03:49:45.273Z,10.81
2022-10-04T03:52:18.955Z,10.83
2022-10-04T03:54:47.335Z,10.77
2022-10-04T03:57:14.901Z,10.76
2022-10-04T03:59:44.035Z,10.76
2022-10-04T04:02:14.927Z,10.77
2022-10-04T04:04:46.803Z,10.80
2022-10-04T04:07:18.763Z,10.78
2022-10-04T04:09:50.842Z,10.78
2022-10-04T04:12:20.749Z,10.77
2022-10-04T04:14:51.699Z,10.84
2022-10-04T04:17:38.062Z,10.76
2022-10-04T04:20:14.553Z,10.70
2022-10-04T04:22:44.271Z,10.60
2022-10-04T04:25:15.972Z,10.52
2022-10-04T04:27:44.752Z,10.50
2022-10-04T04:30:17.076Z,10.46
2022-10-04T04:32:47.553Z,10.42
2022-10-04T04:35:24.104Z,10.38
2022-10-04T04:38:08.002Z,10.28
2022-10-04T04:40:37.700Z,10.25
2022-10-04T04:43:05.318Z,10.23
2022-10-04T04:45:35.701Z,10.17
2022-10-04T04:48:04.640Z,10.13
2022-10-04T04:50:33.595Z,10.02
2022-10-04T04:53:05.203Z,10.16
2022-10-04T04:55:56.306Z,10.24
2022-10-04T04:58:26.227Z,10.29
2022-10-04T05:00:58.660Z,10.23
2022-10-04T05:03:26.951Z,10.16
2022-10-04T05:05:55.010Z,9.96
2022-10-04T05:08:24.652Z,9.85
2022-10-04T05:10:58.709Z,9.82
2022-10-04T05:13:31.282Z,9.95
2022-10-04T05:16:00.625Z,9.94
2022-10-04T05:18:30.491Z,9.91
2022-10-04T05:21:00.678Z,9.83
2022-10-04T05:23:28.643Z,9.83
2022-10-04T05:25:56.177Z,9.97
2022-10-04T05:28:23.964Z,9.99
2022-10-04T05:31:04.529Z,10.05
2022-10-04T05:33:39.503Z,9.94
2022-10-04T05:36:52.681Z,9.94
2022-10-04T05:39:27.720Z,9.87
2022-10-04T05:41:59.267Z,9.88
2022-10-04T05:44:28.288Z,9.91
2022-10-04T05:46:58.488Z,9.97
2022-10-04T05:49:27.552Z,9.98
2022-10-04T05:51:57.283Z,9.95
2022-10-04T05:54:27.749Z,10.04
2022-10-04T05:57:27.244Z,10.05
2022-10-04T06:00:09.374Z,9.97
2022-10-04T06:02:51.073Z,9.98
2022-10-04T06:05:28.811Z,9.90
2022-10-04T06:07:59.796Z,9.85
2022-10-04T06:10:45.252Z,9.84
2022-10-04T06:13:23.703Z,9.80
2022-10-04T06:15:58.613Z,9.80
2022-10-04T06:18:40.912Z,9.91
2022-10-04T06:21:19.418Z,10.00
2022-10-04T06:23:52.563Z,10.11
2022-10-04T06:26:24.884Z,10.16
2022-10-04T06:28:55.908Z,10.30
2022-10-04T06:31:48.488Z,10.32
2022-10-04T06:34:41.191Z,10.37
2022-10-04T06:37:34.723Z,10.50
2022-10-04T06:40:26.780Z,10.47
2022-10-04T06:43:05.059Z,10.58
2022-10-04T06:45:45.390Z,10.55
2022-10-04T06:48:26.978Z,10.47
2022-10-04T06:51:04.299Z,10.54
2022-10-04T06:53:41.540Z,10.55
2022-10-04T06:56:28.031Z,10.54
2022-10-04T06:59:10.981Z,10.58
2022-10-04T07:01:48.587Z,10.53
2022-10-04T07:04:25.763Z,10.44
2022-10-04T07:07:21.921Z,10.44
2022-10-04T07:09:50.176Z,10.42
2022-10-04T07:12:18.384Z,10.44
2022-10-04T07:14:49.037Z,10.50
2022-10-04T07:17:20.416Z,10.53
2022-10-04T07:19:49.523Z,10.57
2022-10-04T07:22:22.645Z,10.62
2022-10-04T07:24:58.752Z,10.57
2022-10-04T07:27:30.909Z,10.88
2022-10-04T07:29:59.374Z,10.88
2022-10-04T07:32:28.872Z,11.14
2022-10-04T07:35:00.851Z,11.17
2022-10-04T07:37:31.749Z,11.04
2022-10-04T07:40:02.448Z,11.27
2022-10-04T07:42:32.806Z,11.51
2022-10-04T07:45:06.112Z,11.73
2022-10-04T07:47:33.785Z,12.00
2022-10-04T07:50:01.295Z,12.25
2022-10-04T07:52:41.445Z,12.40
2022-10-04T07:55:16.918Z,12.64
2022-10-04T07:57:50.054Z,12.58
2022-10-04T08:00:20.207Z,12.61
2022-10-04T08:02:59.923Z,12.22
2022-10-04T08:05:30.249Z,12.19
2022-10-04T08:08:12.458Z,12.58
2022-10-04T08:10:52.112Z,12.57
2022-10-04T08:13:27.473Z,12.79
2022-10-04T08:16:01.237Z,12.74
2022-10-04T08:18:40.029Z,12.89
2022-10-04T08:21:08.767Z,13.08
2022-10-04T08:23:56.272Z,13.31
2022-10-04T08:26:44.806Z,13.42
2022-10-04T08:29:43.846Z,13.62
2022-10-04T08:32:24.250Z,13.44
2022-10-04T08:35:16.284Z,13.29
2022-10-04T08:37:53.633Z,13.25
2022-10-04T08:40:44.323Z,13.22
2022-10-04T08:43:24.322Z,13.62
2022-10-04T08:46:09.590Z,13.26
2022-10-04T08:49:25.339Z,13.13
2022-10-04T08:52:22.208Z,13.16
2022-10-04T08:55:20.831Z,13.41
2022-10-04T08:58:04.768Z,13.81
2022-10-04T09:00:39.680Z,13.69
2022-10-04T09:03:42.759Z,13.76
2022-10-04T09:06:20.118Z,14.07
2022-10-04T09:09:17.505Z,14.14
2022-10-04T09:11:58.272Z,13.98
2022-10-04T09:14:45.752Z,14.19
2022-10-04T09:17:22.545Z,14.34
2022-10-04T09:20:05.027Z,14.24
2022-10-04T09:22:48.716Z,13.96
2022-10-04T09:25:36.388Z,13.73
2022-10-04T09:28:20.617Z,13.87
2022-10-04T09:31:02.846Z,13.99
2022-10-04T09:33:49.331Z,14.20
2022-10-04T09:36:28.094Z,14.29
2022-10-04T09:39:30.396Z,14.36
2022-10-04T09:42:28.755Z,14.08
2022-10-04T09:45:27.395Z,14.07
2022-10-04T09:48:07.760Z,14.36
2022-10-04T09:50:48.731Z,14.54
2022-10-04T09:53:29.063Z,14.58
2022-10-04T09:56:18.316Z,14.58
2022-10-04T09:59:18.479Z,14.70
2022-10-04T10:02:09.957Z,14.73
2022-10-04T10:04:44.395Z,14.66
2022-10-04T10:07:31.412Z,14.77
2022-10-04T10:10:22.723Z,14.63
2022-10-04T10:13:37.801Z,14.45
2022-10-04T10:16:13.515Z,14.60
2022-10-04T10:18:50.293Z,14.95
2022-10-04T10:21:37.128Z,14.94
2022-10-04T10:24:17.920Z,15.03
2022-10-04T10:26:57.359Z,15.27
2022-10-04T10:29:54.379Z,15.18
2022-10-04T10:32:40.083Z,15.01
2022-10-04T10:35:17.551Z,15.04
2022-10-04T10:38:03.640Z,15.36
2022-10-04T10:40:42.203Z,15.40
2022-10-04T10:43:42.693Z,15.14
2022-10-04T10:46:23.470Z,15.04
2022-10-04T10:49:09.958Z,15.26
2022-10-04T10:52:06.127Z,15.36
2022-10-04T10:54:50.313Z,15.05
2022-10-04T10:57:34.287Z,15.20
2022-10-04T11:00:20.275Z,15.58
2022-10-04T11:03:32.482Z,15.73
2022-10-04T11:06:36.303Z,15.74
2022-10-04T11:09:29.460Z,15.79
2022-10-04T11:12:38.999Z,15.63
2022-10-04T11:15:36.188Z,15.84
2022-10-04T11:18:27.903Z,15.67
2022-10-04T11:21:39.816Z,15.82
2022-10-04T11:24:47.863Z,15.65
2022-10-04T11:27:28.321Z,15.97
2022-10-04T11:30:13.789Z,15.57
2022-10-04T11:33:17.282Z,15.85
2022-10-04T11:36:07.435Z,15.87
2022-10-04T11:39:03.277Z,15.90
2022-10-04T11:41:44.233Z,16.34
2022-10-04T11:44:43.520Z,16.52
2022-10-04T11:47:23.961Z,16.35
2022-10-04T11:50:04.753Z,16.34
2022-10-04T11:53:03.295Z,16.33
2022-10-04T11:55:54.237Z,16.43
2022-10-04T11:58:29.703Z,16.62
2022-10-04T12:01:19.874Z,16.62
2022-10-04T12:04:09.798Z,16.31
2022-10-04T12:06:50.517Z,16.76
2022-10-04T12:09:22.080Z,16.99
2022-10-04T12:12:40.055Z,16.98
2022-10-04T12:15:49.794Z,16.92
2022-10-04T12:18:44.419Z,16.93
2022-10-04T12:21:50.336Z,16.96
2022-10-04T12:24:38.322Z,16.85
2022-10-04T12:27:19.826Z,16.83
2022-10-04T12:30:15.819Z,16.52
2022-10-04T12:32:52.235Z,16.35
2022-10-04T12:35:29.674Z,16.36
2022-10-04T12:38:21.064Z,16.30
2022-10-04T12:40:57.303Z,16.61
2022-10-04T12:43:31.591Z,16.78
2022-10-04T12:46:11.933Z,16.99
2022-10-04T12:48:49.235Z,16.82
2022-10-04T12:51:28.597Z,16.95
2022-10-04T12:54:02.520Z,16.97
2022-10-04T12:56:39.571Z,17.24
2022-10-04T12:59:28.623Z,17.26
2022-10-04T13:02:03.342Z,17.20
2022-10-04T13:04:36.190Z,17.18
2022-10-04T13:07:15.931Z,17.28
2022-10-04T13:10:11.967Z,17.29
2022-10-04T13:13:04.422Z,17.48
2022-10-04T13:18:28.182Z,17.44
2022-10-04T13:21:01.778Z,17.13
2022-10-04T13:23:41.074Z,17.36
2022-10-04T13:26:30.016Z,17.16
2022-10-04T13:29:04.875Z,17.10
2022-10-04T13:31:36.692Z,16.76
2022-10-04T13:34:15.460Z,17.00
2022-10-04T13:36:54.211Z,17.17
2022-10-04T13:39:37.917Z,17.47
2022-10-04T13:42:28.828Z,17.64
2022-10-04T13:45:05.387Z,17.95
2022-10-04T13:47:44.937Z,17.94
2022-10-04T13:50:48.971Z,17.36
2022-10-04T13:53:45.715Z,17.61
2022-10-04T13:56:37.616Z,17.26
2022-10-04T13:59:11.283Z,17.17
2022-10-04T14:02:12.608Z,17.47
2022-10-04T14:05:15.957Z,17.98
2022-10-04T14:07:52.136Z,17.81
2022-10-04T14:10:42.760Z,18.09
2022-10-04T14:13:42.815Z,17.64
2022-10-04T14:16:56.116Z,17.31
2022-10-04T14:20:00.815Z,17.55
2022-10-04T14:22:50.190Z,17.28
2022-10-04T14:25:59.835Z,17.44
2022-10-04T14:28:59.820Z,17.08
2022-10-04T14:31:47.887Z,17.27
2022-10-04T14:34:35.075Z,17.27
2022-10-04T14:37:27.197Z,17.05
2022-10-04T14:40:15.238Z,17.42
2022-10-04T14:42:55.784Z,17.35
2022-10-04T14:45:35.127Z,17.42
2022-10-04T14:48:44.289Z,17.27
2022-10-04T14:51:37.690Z,17.40
2022-10-04T14:54:08.688Z,17.47
2022-10-04T14:56:44.783Z,17.36
2022-10-04T14:59:25.791Z,17.14
2022-10-04T15:02:14.452Z,16.72
2022-10-04T15:05:02.843Z,16.97
2022-10-04T15:07:33.325Z,16.92
2022-10-04T15:10:06.658Z,16.90
2022-10-04T15:13:09.926Z,16.84
2022-10-04T15:15:44.691Z,16.82
2022-10-04T15:18:28.095Z,16.85
2022-10-04T15:20:59.977Z,16.82
2022-10-04T15:23:37.864Z,16.93
2022-10-04T15:26:38.899Z,16.77
2022-10-04T15:29:10.580Z,16.89
2022-10-04T15:31:42.473Z,16.82
2022-10-04T15:34:24.819Z,16.62
2022-10-04T15:37:05.106Z,16.34
2022-10-04T15:39:58.799Z,16.27
2022-10-04T15:42:29.137Z,16.44
2022-10-04T15:45:14.382Z,16.40
2022-10-04T15:47:57.981Z,16.35
2022-10-04T15:50:27.800Z,16.38
2022-10-04T15:53:17.427Z,16.23
2022-10-04T15:56:27.107Z,16.20
2022-10-04T15:59:07.095Z,16.23
2022-10-04T16:01:45.942Z,16.26
2022-10-04T16:04:47.488Z,16.32
2022-10-04T16:07:32.523Z,16.24
2022-10-04T16:10:02.676Z,16.26
2022-10-04T16:12:33.077Z,16.31
2022-10-04T16:15:02.349Z,16.23
2022-10-04T16:17:41.640Z,16.26
2022-10-04T16:20:42.752Z,16.18
2022-10-04T16:23:29.009Z,15.99
2022-10-04T16:25:58.533Z,15.83
2022-10-04T16:28:56.214Z,15.82
2022-10-04T16:31:41.051Z,15.67
2022-10-04T16:34:18.452Z,15.58
2022-10-04T16:36:49.880Z,15.46
2022-10-04T16:39:51.815Z,15.32
2022-10-04T16:42:21.013Z,15.26
2022-10-04T16:44:54.491Z,15.14
2022-10-04T16:47:24.993Z,15.03
2022-10-04T16:49:55.080Z,14.90
2022-10-04T16:52:48.391Z,14.81
2022-10-04T16:55:28.630Z,14.68
2022-10-04T16:58:38.514Z,14.54
2022-10-04T17:01:44.975Z,14.45
2022-10-04T17:04:34.575Z,14.38
2022-10-04T17:07:09.801Z,14.33
2022-10-04T17:09:39.073Z,14.24
2022-10-04T17:12:15.928Z,14.06
2022-10-04T17:14:53.919Z,13.91
2022-10-04T17:17:29.859Z,13.84
2022-10-04T17:20:03.393Z,13.72
2022-10-04T17:22:38.652Z,13.63
2022-10-04T17:25:19.839Z,13.58
2022-10-04T17:27:50.201Z,13.50
2022-10-04T17:30:21.732Z,13.50
2022-10-04T17:33:19.388Z,13.54
2022-10-04T17:36:14.913Z,13.57
2022-10-04T17:38:48.661Z,13.63
2022-10-04T17:41:20.228Z,13.70
2022-10-04T17:44:23.607Z,13.72
2022-10-04T17:46:56.100Z,13.71
2022-10-04T17:49:50.820Z,13.80
2022-10-04T17:52:39.843Z,13.76
2022-10-04T17:55:17.409Z,13.77
2022-10-04T17:57:51.988Z,13.79
2022-10-04T18:00:20.997Z,13.82
2022-10-04T18:03:00.688Z,13.78
2022-10-04T18:05:31.030Z,13.87
2022-10-04T18:08:01.567Z,13.94
2022-10-04T18:10:32.744Z,13.87
2022-10-04T18:13:02.696Z,13.86
2022-10-04T18:15:33.529Z,14.00
2022-10-04T18:18:14.283Z,14.17
2022-10-04T18:20:58.477Z,14.18
2022-10-04T18:23:28.200Z,14.22
2022-10-04T18:25:59.373Z,14.34
2022-10-04T18:28:27.006Z,14.36
2022-10-04T18:31:00.359Z,14.42
2022-10-04T18:33:32.484Z,14.36
2022-10-04T18:36:07.370Z,14.26
2022-10-04T18:38:36.286Z,14.13
2022-10-04T18:41:13.453Z,14.05
2022-10-04T18:43:43.848Z,13.98
2022-10-04T18:46:20.980Z,14.04
2022-10-04T18:48:53.682Z,14.11
2022-10-04T18:51:26.792Z,14.17
2022-10-04T18:54:10.317Z,14.14
2022-10-04T18:56:42.002Z,14.26
2022-10-04T18:59:32.929Z,14.25
2022-10-04T19:02:09.125Z,14.26
2022-10-04T19:04:45.840Z,14.30
2022-10-04T19:07:16.560Z,14.36
2022-10-04T19:10:00.425Z,14.37
2022-10-04T19:12:33.831Z,14.49
2022-10-04T19:15:06.544Z,14.54
2022-10-04T19:17:36.668Z,14.61
2022-10-04T19:20:07.120Z,14.59
2022-10-04T19:22:46.419Z,14.68
2022-10-04T19:25:31.991Z,14.67
2022-10-04T19:28:04.236Z,14.76
2022-10-04T19:30:48.765Z,14.74
2022-10-04T19:33:20.274Z,14.83
2022-10-04T19:35:58.668Z,14.76
2022-10-04T19:38:40.465Z,14.69
2022-10-04T19:41:11.909Z,14.68
2022-10-04T19:43:46.765Z,14.68
2022-10-04T19:46:24.400Z,14.75
2022-10-04T19:48:53.205Z,14.79
2022-10-04T19:51:29.091Z,14.72
2022-10-04T19:54:03.992Z,14.70
2022-10-04T19:56:33.577Z,14.75
2022-10-04T19:59:08.059Z,14.91
2022-10-04T20:01:36.459Z,14.87
2022-10-04T20:04:26.497Z,14.98
2022-10-04T20:06:56.828Z,14.91
2022-10-04T20:09:31.295Z,14.89
2022-10-04T20:11:59.333Z,14.92
2022-10-04T20:15:08.708Z,14.93
2022-10-04T20:17:37.728Z,14.91
2022-10-04T20:20:05.401Z,14.99
2022-10-04T20:22:54.971Z,15.09
2022-10-04T20:25:59.871Z,15.07
2022-10-04T20:28:44.655Z,15.04
2022-10-04T20:31:50.205Z,15.05
2022-10-04T20:34:32.898Z,14.87
2022-10-04T20:37:00.583Z,14.84
2022-10-04T20:40:01.316Z,14.93
2022-10-04T20:42:38.881Z,14.92
2022-10-04T20:45:43.848Z,14.88
2022-10-04T20:48:14.924Z,14.93
2022-10-04T20:50:43.284Z,15.01
2022-10-04T20:53:17.148Z,14.96
2022-10-04T20:55:46.002Z,14.96
2022-10-04T20:58:31.502Z,14.97
2022-10-04T21:01:10.864Z,15.01
2022-10-04T21:03:38.430Z,15.03
2022-10-04T21:06:08.467Z,14.98
2022-10-04T21:08:36.192Z,14.96
2022-10-04T21:11:19.441Z,14.98
2022-10-04T21:13:53.718Z,14.98
2022-10-04T21:16:43.633Z,14.86
2022-10-04T21:19:44.784Z,14.89
2022-10-04T21:22:33.150Z,14.93
2022-10-04T21:25:01.673Z,14.97
2022-10-04T21:27:30.626Z,14.87
2022-10-04T21:29:58.284Z,15.01
2022-10-04T21:32:27.608Z,14.86
2022-10-04T21:34:55.145Z,14.90
2022-10-04T21:37:22.849Z,14.94
2022-10-04T21:39:50.446Z,14.92
2022-10-04T21:42:18.128Z,14.98
2022-10-04T21:44:45.648Z,14.98
2022-10-04T21:47:13.172Z,15.05
2022-10-04T21:49:42.400Z,14.97
2022-10-04T21:52:10.153Z,14.95
2022-10-04T21:54:37.695Z,14.86
2022-10-04T21:57:05.364Z,14.88
2022-10-04T21:59:32.897Z,14.78
2022-10-04T22:02:00.792Z,14.82
2022-10-04T22:04:28.388Z,14.77
2022-10-04T22:06:57.282Z,15.04
2022-10-04T22:09:24.816Z,14.89
2022-10-04T22:11:52.336Z,14.87
2022-10-04T22:14:19.911Z,14.97
2022-10-04T22:16:47.992Z,14.90
2022-10-04T22:19:15.732Z,14.86
2022-10-04T22:21:43.299Z,14.84
2022-10-04T22:24:17.213Z,14.86
2022-10-04T22:26:44.980Z,14.85
2022-10-04T22:29:14.260Z,14.90
2022-10-04T22:31:44.375Z,14.96
2022-10-04T22:34:17.338Z,14.97
2022-10-04T22:36:46.017Z,14.87
2022-10-04T22:39:17.181Z,15.01
2022-10-04T22:41:46.352Z,14.89
2022-10-04T22:44:16.649Z,14.87
2022-10-04T22:46:45.958Z,14.87
2022-10-04T22:49:15.196Z,14.91
2022-10-04T22:51:44.700Z,14.99
2022-10-04T22:54:13.353Z,14.91
2022-10-04T22:56:42.563Z,14.98
2022-10-04T22:59:11.334Z,15.02
2022-10-04T23:01:39.217Z,14.98
2022-10-04T23:04:12.764Z,14.95
2022-10-04T23:06:40.287Z,14.92
2022-10-04T23:09:07.855Z,14.92
2022-10-04T23:11:35.364Z,14.89
2022-10-04T23:14:04.246Z,14.89
2022-10-04T23:16:31.921Z,15.03
2022-10-04T23:19:02.289Z,15.02
2022-10-04T23:21:34.504Z,14.97
2022-10-04T23:24:07.615Z,14.94
2022-10-04T23:26:38.403Z,14.86
2022-10-04T23:29:08.664Z,15.06
2022-10-04T23:31:37.874Z,14.90
2022-10-04T23:34:15.576Z,14.94
2022-10-04T23:36:43.218Z,14.84
2022-10-04T23:39:14.877Z,14.87
2022-10-04T23:41:43.110Z,14.86
2022-10-04T23:44:14.090Z,15.03
2022-10-04T23:46:41.744Z,14.85
2022-10-04T23:49:13.379Z,14.93
2022-10-04T23:51:40.952Z,14.90
2022-10-04T23:54:11.931Z,14.89
2022-10-04T23:56:39.457Z,14.82
2022-10-04T23:59:15.715Z,14.91
